Time;durP1;ratioP1;P1;durP2;ratioP2;P2;SDS_P1;SDS_P2;PMS_P1;PMS_P2;Temp;Humidity;BMP_temperature;BMP_pressure;BME280_temperature;BME280_humidity;BME280_pressure;Samples;Min_cycle;Max_cycle;Signal;HPM_P1;HPM_P2
2022/05/22 00:01:54;;;;;;;;;6.33;5.00;;;;;;;;5048875;28;45299;-72
2022/05/22 00:04:19;;;;;;;;;7.00;6.67;;;;;;;;5058285;28;45514;-72
2022/05/22 00:06:45;;;;;;;;;9.00;7.00;;;;;;;;5049751;28;45471;-71
2022/05/22 00:09:11;;;;;;;;;6.67;5.00;;;;;;;;5058865;28;47502;-71
2022/05/22 00:11:36;;;;;;;;;6.67;4.33;;;;;;;;5052755;28;45315;-72
2022/05/22 00:14:02;;;;;;;;;8.67;4.67;;;;;;;;5059269;28;45345;-71
2022/05/22 00:16:36;;;;;;;;;6.33;5.00;;;;;;;;5047289;28;47022;-71
2022/05/22 00:19:02;;;;;;;;;7.00;6.00;;;;;;;;5051350;28;45417;-71
2022/05/22 00:21:27;;;;;;;;;5.00;4.00;;;;;;;;5050535;28;45294;-71
2022/05/22 00:23:52;;;;;;;;;4.00;4.00;;;;;;;;5059218;28;45485;-71
2022/05/22 00:26:18;;;;;;;;;5.67;5.00;;;;;;;;5052004;28;45410;-72
2022/05/22 00:28:43;;;;;;;;;5.00;5.00;;;;;;;;5058756;28;45368;-71
2022/05/22 00:31:08;;;;;;;;;5.33;5.00;;;;;;;;5052058;28;45381;-72
2022/05/22 00:33:34;;;;;;;;;5.00;5.00;;;;;;;;5058868;28;45389;-71
2022/05/22 00:35:59;;;;;;;;;7.00;5.00;;;;;;;;5050352;28;47257;-71
2022/05/22 00:38:24;;;;;;;;;4.00;4.00;;;;;;;;5052876;28;45402;-71
2022/05/22 00:40:50;;;;;;;;;8.67;6.00;;;;;;;;5051980;28;45374;-71
2022/05/22 00:43:28;;;;;;;;;6.00;6.00;;;;;;;;5058865;28;45343;-71
2022/05/22 00:45:54;;;;;;;;;5.00;5.00;;;;;;;;5052120;28;46074;-71
2022/05/22 00:48:19;;;;;;;;;5.33;5.33;;;;;;;;5059376;28;46556;-71
2022/05/22 00:50:45;;;;;;;;;5.00;5.00;;;;;;;;5055557;28;45347;-71
2022/05/22 00:53:10;;;;;;;;;8.67;6.00;;;;;;;;5061126;28;45786;-71
2022/05/22 00:55:35;;;;;;;;;6.33;5.33;;;;;;;;5058891;28;45607;-71
2022/05/22 00:58:04;;;;;;;;;5.00;5.00;;;;;;;;5062308;28;46094;-71
2022/05/22 01:00:31;;;;;;;;;6.00;6.00;;;;;;;;5058241;28;45433;-71
2022/05/22 01:05:42;;;;;;;;;10.67;7.33;;;;;;;;5055744;28;45650;-71
2022/05/22 01:08:07;;;;;;;;;9.33;5.00;;;;;;;;5058016;28;45146;-72
2022/05/22 01:10:34;;;;;;;;;5.33;5.33;;;;;;;;5054424;28;45774;-72
2022/05/22 01:13:00;;;;;;;;;7.33;7.00;;;;;;;;5062010;28;45311;-71
2022/05/22 01:15:25;;;;;;;;;7.00;7.00;;;;;;;;5057177;28;45443;-71
2022/05/22 01:17:51;;;;;;;;;7.00;6.67;;;;;;;;5055578;28;48440;-71
2022/05/22 01:20:16;;;;;;;;;8.33;8.33;;;;;;;;5055390;28;45375;-72
2022/05/22 01:22:42;;;;;;;;;11.33;8.67;;;;;;;;5057933;28;45458;-71
2022/05/22 01:25:08;;;;;;;;;11.67;10.67;;;;;;;;5056642;28;45406;-72
2022/05/22 01:27:34;;;;;;;;;11.00;10.00;;;;;;;;5060379;28;45290;-72
2022/05/22 01:30:16;;;;;;;;;15.00;14.67;;;;;;;;5057405;28;45284;-71
2022/05/22 01:32:44;;;;;;;;;13.33;13.33;;;;;;;;5059990;28;45412;-72
2022/05/22 01:35:10;;;;;;;;;14.67;12.33;;;;;;;;5056155;28;45775;-72
2022/05/22 01:37:36;;;;;;;;;14.67;12.67;;;;;;;;5060150;28;46600;-73
2022/05/22 01:40:01;;;;;;;;;16.67;14.00;;;;;;;;5057037;28;45227;-73
2022/05/22 01:42:28;;;;;;;;;12.33;11.67;;;;;;;;5055589;28;45401;-73
2022/05/22 01:44:53;;;;;;;;;17.33;13.67;;;;;;;;5058074;28;45288;-72
2022/05/22 01:47:18;;;;;;;;;17.00;13.67;;;;;;;;5055879;28;46168;-72
2022/05/22 01:49:43;;;;;;;;;17.00;15.00;;;;;;;;5059179;28;45489;-72
2022/05/22 01:52:09;;;;;;;;;15.00;14.00;;;;;;;;5058656;28;45181;-72
2022/05/22 01:54:34;;;;;;;;;12.00;12.00;;;;;;;;5055050;28;45062;-72
2022/05/22 01:56:59;;;;;;;;;12.67;9.00;;;;;;;;5059361;28;46003;-71
2022/05/22 01:59:26;;;;;;;;;13.00;12.00;;;;;;;;5057943;28;45278;-71
2022/05/22 02:01:51;;;;;;;;;13.00;12.00;;;;;;;;5056356;28;45366;-72
2022/05/22 02:04:16;;;;;;;;;11.33;10.33;;;;;;;;5060258;28;45295;-72
2022/05/22 02:09:25;;;;;;;;;11.33;10.00;;;;;;;;5059665;28;45364;-72
2022/05/22 02:11:50;;;;;;;;;12.33;9.33;;;;;;;;5053084;28;45283;-72
2022/05/22 02:14:17;;;;;;;;;8.33;7.67;;;;;;;;5058896;28;47232;-72
2022/05/22 02:16:42;;;;;;;;;8.00;7.00;;;;;;;;5052386;28;45406;-72
2022/05/22 02:19:07;;;;;;;;;10.00;10.00;;;;;;;;5060730;28;45369;-72
2022/05/22 02:21:32;;;;;;;;;10.33;9.33;;;;;;;;5053684;28;46036;-72
2022/05/22 02:23:57;;;;;;;;;8.33;8.00;;;;;;;;5061240;28;45254;-72
2022/05/22 02:26:22;;;;;;;;;8.00;7.00;;;;;;;;5053577;28;45607;-72
2022/05/22 02:28:48;;;;;;;;;12.00;7.33;;;;;;;;5060775;28;45334;-72
2022/05/22 02:31:13;;;;;;;;;8.00;7.00;;;;;;;;5054004;28;45435;-72
2022/05/22 02:33:38;;;;;;;;;5.00;4.00;;;;;;;;5060533;28;45631;-72
2022/05/22 02:36:06;;;;;;;;;6.33;6.33;;;;;;;;5053308;28;45505;-72
2022/05/22 02:38:31;;;;;;;;;7.00;6.00;;;;;;;;5060777;28;45365;-72
2022/05/22 02:40:57;;;;;;;;;7.33;7.00;;;;;;;;5053766;28;45537;-71
2022/05/22 02:43:22;;;;;;;;;10.33;8.00;;;;;;;;5060316;28;45328;-71
2022/05/22 02:45:47;;;;;;;;;9.00;7.33;;;;;;;;5053927;28;46518;-71
2022/05/22 02:48:13;;;;;;;;;7.67;7.67;;;;;;;;5058948;28;45355;-71
2022/05/22 02:50:38;;;;;;;;;7.00;7.00;;;;;;;;5056047;28;45332;-71
2022/05/22 02:53:03;;;;;;;;;5.00;5.00;;;;;;;;5058709;28;46288;-71
2022/05/22 02:55:28;;;;;;;;;10.00;9.67;;;;;;;;5054937;28;47270;-71
2022/05/22 02:57:54;;;;;;;;;10.00;10.00;;;;;;;;5060346;28;45279;-71
2022/05/22 03:00:21;;;;;;;;;11.67;9.33;;;;;;;;5053037;28;45410;-71
2022/05/22 03:02:46;;;;;;;;;13.00;12.67;;;;;;;;5051905;28;45395;-71
2022/05/22 03:05:12;;;;;;;;;13.67;12.00;;;;;;;;5057476;28;45865;-71
2022/05/22 03:07:38;;;;;;;;;13.67;12.33;;;;;;;;5052200;28;45517;-71
2022/05/22 03:10:04;;;;;;;;;15.67;12.67;;;;;;;;5055981;28;45441;-71
2022/05/22 03:12:30;;;;;;;;;9.00;9.00;;;;;;;;5056484;28;45275;-71
2022/05/22 03:14:56;;;;;;;;;14.00;11.00;;;;;;;;5056703;28;45473;-72
2022/05/22 03:17:22;;;;;;;;;9.00;9.00;;;;;;;;5056958;28;45322;-71
2022/05/22 03:19:47;;;;;;;;;11.00;9.33;;;;;;;;5075810;27;45212;-72
2022/05/22 03:22:13;;;;;;;;;9.33;8.00;;;;;;;;5057522;28;46087;-72
2022/05/22 03:24:39;;;;;;;;;14.00;7.33;;;;;;;;5076385;27;47260;-72
2022/05/22 03:27:05;;;;;;;;;9.33;8.00;;;;;;;;5058904;28;45217;-71
2022/05/22 03:29:31;;;;;;;;;7.67;7.67;;;;;;;;5057787;28;45593;-71
2022/05/22 03:31:56;;;;;;;;;6.00;6.00;;;;;;;;5056554;28;47057;-71
2022/05/22 03:34:21;;;;;;;;;5.67;5.67;;;;;;;;5057646;28;45679;-71
2022/05/22 03:36:46;;;;;;;;;10.00;8.33;;;;;;;;5058004;28;45417;-71
2022/05/22 03:39:12;;;;;;;;;8.33;6.00;;;;;;;;5058956;28;45558;-71
2022/05/22 03:41:38;;;;;;;;;10.00;8.00;;;;;;;;5053742;28;45443;-71
2022/05/22 03:44:03;;;;;;;;;9.33;9.00;;;;;;;;5057357;28;45390;-71
2022/05/22 03:46:28;;;;;;;;;7.67;7.00;;;;;;;;5054273;28;45287;-71
2022/05/22 03:48:54;;;;;;;;;7.00;7.00;;;;;;;;5058380;28;45332;-71
2022/05/22 03:51:19;;;;;;;;;7.00;7.00;;;;;;;;5055409;28;45609;-71
2022/05/22 03:53:44;;;;;;;;;8.00;7.33;;;;;;;;5059025;28;46264;-72
2022/05/22 03:56:13;;;;;;;;;8.33;7.33;;;;;;;;5054621;28;45806;-71
2022/05/22 03:58:39;;;;;;;;;9.00;6.67;;;;;;;;5057174;28;45470;-72
2022/05/22 04:01:05;;;;;;;;;10.33;8.00;;;;;;;;5050119;28;45378;-72
2022/05/22 04:03:30;;;;;;;;;7.33;7.33;;;;;;;;5056691;28;46494;-72
2022/05/22 04:05:55;;;;;;;;;10.67;8.00;;;;;;;;5051294;28;45569;-71
2022/05/22 04:08:20;;;;;;;;;9.67;8.00;;;;;;;;5056687;28;45538;-72
2022/05/22 04:10:45;;;;;;;;;11.67;10.00;;;;;;;;5052945;28;45368;-72
2022/05/22 04:13:10;;;;;;;;;7.00;7.00;;;;;;;;5058705;28;45460;-72
2022/05/22 04:15:36;;;;;;;;;10.00;7.33;;;;;;;;5053482;28;45274;-72
2022/05/22 04:18:01;;;;;;;;;11.67;9.00;;;;;;;;5055811;28;45267;-71
2022/05/22 04:20:26;;;;;;;;;8.33;8.00;;;;;;;;5051941;28;45559;-72
2022/05/22 04:25:35;;;;;;;;;10.67;9.67;;;;;;;;5055783;28;45417;-72
2022/05/22 04:28:01;;;;;;;;;8.33;8.33;;;;;;;;5060702;28;45465;-72
2022/05/22 04:30:26;;;;;;;;;7.00;7.00;;;;;;;;5055795;28;45259;-72
2022/05/22 04:32:52;;;;;;;;;10.33;8.33;;;;;;;;5061958;28;45582;-72
2022/05/22 04:35:17;;;;;;;;;9.00;9.00;;;;;;;;5054814;28;45701;-72
2022/05/22 04:37:43;;;;;;;;;6.67;6.67;;;;;;;;5061624;28;45383;-72
2022/05/22 04:40:09;;;;;;;;;9.00;8.00;;;;;;;;5057175;28;45325;-71
2022/05/22 04:42:35;;;;;;;;;12.00;10.33;;;;;;;;5060320;28;47296;-71
2022/05/22 04:45:00;;;;;;;;;8.00;8.00;;;;;;;;5058371;28;45804;-72
2022/05/22 04:47:26;;;;;;;;;8.33;8.00;;;;;;;;5055795;28;45218;-72
2022/05/22 04:49:51;;;;;;;;;10.00;9.00;;;;;;;;5059269;28;45324;-71
2022/05/22 04:52:16;;;;;;;;;9.33;9.00;;;;;;;;5060619;28;46288;-71
2022/05/22 04:54:42;;;;;;;;;7.33;7.33;;;;;;;;5058538;28;45595;-72
2022/05/22 04:57:07;;;;;;;;;10.33;9.33;;;;;;;;5060506;28;45391;-72
2022/05/22 04:59:32;;;;;;;;;14.00;9.33;;;;;;;;5058600;28;46194;-71
2022/05/22 05:01:57;;;;;;;;;8.67;7.00;;;;;;;;5052470;28;45727;-72
2022/05/22 05:04:22;;;;;;;;;8.00;6.67;;;;;;;;5060893;28;45338;-72
2022/05/22 05:06:48;;;;;;;;;7.67;7.33;;;;;;;;5052972;28;46348;-72
2022/05/22 05:09:13;;;;;;;;;4.67;4.67;;;;;;;;5060455;28;46218;-72
2022/05/22 05:11:38;;;;;;;;;7.00;7.00;;;;;;;;5055869;28;46251;-72
2022/05/22 05:14:04;;;;;;;;;7.33;7.33;;;;;;;;5061232;28;45315;-72
2022/05/22 05:16:29;;;;;;;;;8.00;8.00;;;;;;;;5054984;28;45588;-72
2022/05/22 05:18:55;;;;;;;;;11.00;9.00;;;;;;;;5061594;28;45438;-71
2022/05/22 05:21:20;;;;;;;;;10.00;8.00;;;;;;;;5054633;28;45441;-72
2022/05/22 05:23:45;;;;;;;;;9.00;9.00;;;;;;;;5061553;28;45186;-72
2022/05/22 05:26:11;;;;;;;;;11.33;9.33;;;;;;;;5054649;28;45465;-72
2022/05/22 05:28:36;;;;;;;;;12.67;9.33;;;;;;;;5061396;28;45409;-72
2022/05/22 05:31:03;;;;;;;;;10.67;8.67;;;;;;;;5054644;28;45308;-71
2022/05/22 05:33:30;;;;;;;;;10.67;10.67;;;;;;;;5061231;28;45244;-71
2022/05/22 05:35:55;;;;;;;;;9.00;7.00;;;;;;;;5052563;28;45448;-72
2022/05/22 05:38:20;;;;;;;;;10.33;10.00;;;;;;;;5058007;28;45725;-72
2022/05/22 05:40:48;;;;;;;;;9.00;9.00;;;;;;;;5056209;28;46548;-71
2022/05/22 05:43:14;;;;;;;;;11.00;9.33;;;;;;;;5059758;28;45178;-71
2022/05/22 05:45:41;;;;;;;;;9.67;9.00;;;;;;;;5057222;28;45453;-72
2022/05/22 05:48:06;;;;;;;;;10.00;9.00;;;;;;;;5060048;28;45395;-72
2022/05/22 05:50:31;;;;;;;;;11.33;10.33;;;;;;;;5056284;28;45427;-71
2022/05/22 05:52:58;;;;;;;;;10.33;10.33;;;;;;;;5060832;28;45346;-72
2022/05/22 05:55:24;;;;;;;;;10.67;9.67;;;;;;;;5056176;28;45524;-72
2022/05/22 05:57:49;;;;;;;;;9.67;9.67;;;;;;;;5060248;28;45354;-72
2022/05/22 06:00:16;;;;;;;;;6.33;6.33;;;;;;;;5053543;28;47741;-71
2022/05/22 06:02:41;;;;;;;;;9.00;9.00;;;;;;;;5051314;28;45312;-72
2022/05/22 06:05:07;;;;;;;;;13.00;10.00;;;;;;;;5054121;28;45657;-71
2022/05/22 06:07:32;;;;;;;;;10.33;9.00;;;;;;;;5050689;28;45308;-72
2022/05/22 06:09:58;;;;;;;;;12.33;10.00;;;;;;;;5057571;28;45418;-72
2022/05/22 06:12:24;;;;;;;;;12.67;11.33;;;;;;;;5057259;28;45644;-72
2022/05/22 06:14:49;;;;;;;;;10.33;9.00;;;;;;;;5057393;28;45482;-72
2022/05/22 06:17:15;;;;;;;;;11.00;11.00;;;;;;;;5054947;28;45276;-72
2022/05/22 06:19:55;;;;;;;;;11.00;8.00;;;;;;;;5057899;28;45215;-72
2022/05/22 06:22:21;;;;;;;;;13.67;9.33;;;;;;;;5055091;28;45299;-71
2022/05/22 06:24:47;;;;;;;;;11.00;9.00;;;;;;;;5058319;28;45596;-72
2022/05/22 06:27:12;;;;;;;;;9.67;9.67;;;;;;;;5055435;28;45504;-72
2022/05/22 06:29:38;;;;;;;;;8.33;8.33;;;;;;;;5057529;28;45559;-70
2022/05/22 06:32:04;;;;;;;;;7.00;5.67;;;;;;;;5055459;28;45830;-69
2022/05/22 06:34:32;;;;;;;;;10.00;10.00;;;;;;;;5058721;28;45535;-70
2022/05/22 06:36:59;;;;;;;;;11.00;11.00;;;;;;;;5068360;28;46399;-70
2022/05/22 06:42:12;;;;;;;;;10.00;9.00;;;;;;;;5051188;28;45395;-69
2022/05/22 06:44:37;;;;;;;;;10.00;7.00;;;;;;;;5058127;28;45267;-70
2022/05/22 06:47:04;;;;;;;;;5.00;4.67;;;;;;;;5052683;28;45217;-69
2022/05/22 06:49:29;;;;;;;;;4.00;4.00;;;;;;;;5057048;28;47137;-69
2022/05/22 06:51:56;;;;;;;;;7.67;7.67;;;;;;;;5057456;28;45256;-70
2022/05/22 06:54:22;;;;;;;;;9.00;9.00;;;;;;;;5057962;28;45351;-70
2022/05/22 06:56:47;;;;;;;;;8.33;7.33;;;;;;;;5057722;28;45568;-70
2022/05/22 06:59:12;;;;;;;;;9.33;9.33;;;;;;;;5060031;28;46300;-70
2022/05/22 07:01:38;;;;;;;;;7.00;7.00;;;;;;;;5047679;28;45431;-70
2022/05/22 07:04:03;;;;;;;;;8.67;7.33;;;;;;;;5059935;28;45283;-70
2022/05/22 07:06:28;;;;;;;;;7.33;7.33;;;;;;;;5048818;28;45442;-69
2022/05/22 07:08:54;;;;;;;;;8.67;7.00;;;;;;;;5058915;28;46208;-70
2022/05/22 07:14:03;;;;;;;;;8.33;8.00;;;;;;;;5050785;28;45355;-69
2022/05/22 07:16:28;;;;;;;;;7.67;7.00;;;;;;;;5049549;28;47056;-69
2022/05/22 07:18:53;;;;;;;;;9.33;9.33;;;;;;;;5048904;28;47190;-73
2022/05/22 07:21:18;;;;;;;;;7.67;6.67;;;;;;;;5051947;28;45589;-70
2022/05/22 07:23:44;;;;;;;;;7.00;7.00;;;;;;;;5081709;27;45328;-69
2022/05/22 07:26:09;;;;;;;;;10.33;8.00;;;;;;;;5049659;28;45368;-69
2022/05/22 07:28:34;;;;;;;;;8.67;7.33;;;;;;;;5058843;28;45431;-70
2022/05/22 07:31:00;;;;;;;;;6.00;6.00;;;;;;;;5053359;28;45353;-70
2022/05/22 07:33:25;;;;;;;;;8.67;7.33;;;;;;;;5058132;28;45434;-69
2022/05/22 07:35:54;;;;;;;;;8.00;6.33;;;;;;;;5056065;28;45493;-71
2022/05/22 07:38:19;;;;;;;;;10.00;8.00;;;;;;;;5057420;28;47087;-71
2022/05/22 07:40:44;;;;;;;;;6.67;5.67;;;;;;;;5054531;28;45320;-70
2022/05/22 07:43:10;;;;;;;;;6.00;4.67;;;;;;;;5059353;28;45473;-70
2022/05/22 07:45:35;;;;;;;;;6.33;6.33;;;;;;;;5053320;28;46196;-70
2022/05/22 07:48:00;;;;;;;;;7.00;7.00;;;;;;;;5058544;28;46090;-70
2022/05/22 07:50:25;;;;;;;;;6.67;5.67;;;;;;;;5055715;28;45443;-70
2022/05/22 07:52:51;;;;;;;;;6.33;5.00;;;;;;;;5057225;28;45207;-69
2022/05/22 07:55:18;;;;;;;;;4.00;4.00;;;;;;;;5052099;28;46261;-70
2022/05/22 07:57:46;;;;;;;;;6.00;6.00;;;;;;;;5058308;28;46049;-70
2022/05/22 08:00:12;;;;;;;;;6.00;6.00;;;;;;;;5057444;28;45327;-70
2022/05/22 08:02:37;;;;;;;;;7.00;5.67;;;;;;;;5051132;28;45343;-70
2022/05/22 08:05:04;;;;;;;;;5.67;5.67;;;;;;;;5054647;28;45880;-70
2022/05/22 08:07:29;;;;;;;;;5.00;5.00;;;;;;;;5055664;28;45920;-70
2022/05/22 08:09:55;;;;;;;;;6.00;5.00;;;;;;;;5055049;28;45232;-70
2022/05/22 08:12:21;;;;;;;;;6.67;4.67;;;;;;;;5053783;28;45312;-70
2022/05/22 08:14:46;;;;;;;;;4.33;4.33;;;;;;;;5054930;28;46016;-70
2022/05/22 08:17:11;;;;;;;;;4.67;4.67;;;;;;;;5057052;28;47985;-70
2022/05/22 08:19:36;;;;;;;;;7.67;6.33;;;;;;;;5056344;28;45235;-70
2022/05/22 08:22:02;;;;;;;;;4.00;4.00;;;;;;;;5053162;28;45434;-70
2022/05/22 08:24:27;;;;;;;;;7.00;5.33;;;;;;;;5057278;28;45279;-70
2022/05/22 08:26:52;;;;;;;;;4.75;4.75;;;;;;;;5051932;28;46032;-70
2022/05/22 08:29:18;;;;;;;;;3.75;3.75;;;;;;;;5058354;28;45349;-70
2022/05/22 08:31:43;;;;;;;;;4.75;4.75;;;;;;;;5048904;28;45382;-70
2022/05/22 08:34:09;;;;;;;;;4.00;4.00;;;;;;;;5056105;28;45446;-70
2022/05/22 08:36:34;;;;;;;;;4.50;3.25;;;;;;;;5055175;28;45505;-71
2022/05/22 08:38:59;;;;;;;;;6.00;4.25;;;;;;;;5058036;28;45524;-70
2022/05/22 08:41:30;;;;;;;;;3.25;2.50;;;;;;;;5058092;28;45406;-70
2022/05/22 08:44:02;;;;;;;;;4.00;4.00;;;;;;;;5057302;28;46508;-70
2022/05/22 08:46:34;;;;;;;;;5.75;2.75;;;;;;;;5086401;27;48628;-70
2022/05/22 08:49:02;;;;;;;;;4.00;4.00;;;;;;;;5056236;28;45759;-70
2022/05/22 08:51:31;;;;;;;;;7.00;6.00;;;;;;;;5054885;28;45353;-69
2022/05/22 08:53:58;;;;;;;;;3.50;3.50;;;;;;;;5057154;28;45380;-70
2022/05/22 08:59:29;;;;;;;;;7.25;4.00;;;;;;;;5047164;28;45351;-69
2022/05/22 09:02:14;;;;;;;;;4.00;3.25;;;;;;;;5078602;27;45272;-70
2022/05/22 09:04:39;;;;;;;;;3.00;3.00;;;;;;;;5056014;28;45488;-69
2022/05/22 09:07:10;;;;;;;;;3.00;3.00;;;;;;;;5052962;28;45709;-70
2022/05/22 09:09:37;;;;;;;;;4.00;3.00;;;;;;;;5058281;28;45316;-70
2022/05/22 09:12:29;;;;;;;;;3.25;3.25;;;;;;;;5053204;28;45320;-70
2022/05/22 09:15:03;;;;;;;;;4.75;3.25;;;;;;;;5040271;28;45424;-70
2022/05/22 09:17:34;;;;;;;;;4.00;2.00;;;;;;;;5046633;28;47472;-69
2022/05/22 09:19:59;;;;;;;;;5.00;5.00;;;;;;;;5056461;28;45442;-69
2022/05/22 09:22:43;;;;;;;;;3.00;2.00;;;;;;;;5056041;28;45507;-71
2022/05/22 09:25:22;;;;;;;;;3.00;3.00;;;;;;;;5067298;28;46212;-71
2022/05/22 09:28:02;;;;;;;;;3.25;3.25;;;;;;;;5060046;28;45376;-71
2022/05/22 09:30:39;;;;;;;;;2.80;2.20;;;;;;;;5054684;28;45452;-70
2022/05/22 09:33:21;;;;;;;;;5.75;2.75;;;;;;;;5059622;28;45499;-70
2022/05/22 09:35:46;;;;;;;;;3.50;3.50;;;;;;;;5054105;28;46887;-70
2022/05/22 09:38:20;;;;;;;;;2.00;2.00;;;;;;;;5060809;28;46201;-70
2022/05/22 09:40:46;;;;;;;;;5.60;4.00;;;;;;;;5055051;28;45721;-70
2022/05/22 09:43:26;;;;;;;;;2.75;2.75;;;;;;;;5057015;28;45261;-71
2022/05/22 09:46:00;;;;;;;;;2.00;2.00;;;;;;;;5056193;28;45566;-70
2022/05/22 09:48:51;;;;;;;;;3.75;3.50;;;;;;;;5058094;28;45308;-71
2022/05/22 09:51:21;;;;;;;;;4.20;4.20;;;;;;;;5057687;28;47001;-70
2022/05/22 09:53:46;;;;;;;;;5.00;3.00;;;;;;;;5059549;28;45324;-70
2022/05/22 09:56:23;;;;;;;;;1.75;1.75;;;;;;;;5058119;28;45362;-69
2022/05/22 09:58:58;;;;;;;;;4.00;3.00;;;;;;;;5060370;28;46367;-70
2022/05/22 10:01:27;;;;;;;;;3.80;3.80;;;;;;;;5051145;28;45390;-70
2022/05/22 10:04:11;;;;;;;;;3.25;2.75;;;;;;;;5056525;28;45402;-70
2022/05/22 10:06:42;;;;;;;;;2.75;2.75;;;;;;;;5052507;28;45287;-70
2022/05/22 10:09:15;;;;;;;;;2.75;2.00;;;;;;;;5060644;28;45263;-70
2022/05/22 10:11:51;;;;;;;;;2.50;2.50;;;;;;;;5051629;28;45228;-70
2022/05/22 10:14:26;;;;;;;;;3.75;2.50;;;;;;;;5060708;28;45178;-71
2022/05/22 10:16:57;;;;;;;;;2.25;2.25;;;;;;;;5054488;28;45890;-71
2022/05/22 10:19:37;;;;;;;;;4.75;3.00;;;;;;;;5060345;28;45526;-70
2022/05/22 10:22:02;;;;;;;;;1.80;1.80;;;;;;;;5054481;28;45541;-70
2022/05/22 10:24:34;;;;;;;;;1.75;1.75;;;;;;;;5059616;28;45250;-70
2022/05/22 10:27:19;;;;;;;;;2.00;2.00;;;;;;;;5055138;28;45291;-70
2022/05/22 10:29:56;;;;;;;;;2.25;2.25;;;;;;;;5058488;28;46372;-70
2022/05/22 10:32:28;;;;;;;;;2.50;2.50;;;;;;;;5052134;28;45273;-70
2022/05/22 10:34:56;;;;;;;;;3.75;3.75;;;;;;;;5058474;28;45326;-70
2022/05/22 10:37:27;;;;;;;;;4.00;3.25;;;;;;;;5051293;28;45388;-72
2022/05/22 10:39:52;;;;;;;;;3.75;3.75;;;;;;;;5057446;28;46006;-72
2022/05/22 10:42:47;;;;;;;;;3.00;3.00;;;;;;;;5053125;28;45783;-69
2022/05/22 10:45:19;;;;;;;;;3.75;3.75;;;;;;;;5054908;28;45548;-75
2022/05/22 10:47:44;;;;;;;;;3.25;3.00;;;;;;;;5057619;28;45410;-71
2022/05/22 10:50:28;;;;;;;;;6.25;4.00;;;;;;;;5048361;28;46055;-71
2022/05/22 10:52:54;;;;;;;;;2.75;2.75;;;;;;;;5052903;28;45241;-71
2022/05/22 10:55:43;;;;;;;;;4.00;4.00;;;;;;;;5057601;28;45284;-71
2022/05/22 10:58:26;;;;;;;;;4.00;2.75;;;;;;;;5059225;28;45680;-73
2022/05/22 11:00:52;;;;;;;;;5.00;4.00;;;;;;;;5076355;27;47225;-72
2022/05/22 11:03:18;;;;;;;;;4.50;3.00;;;;;;;;5077491;27;45564;-70
2022/05/22 11:05:49;;;;;;;;;3.75;3.75;;;;;;;;5047434;28;45490;-69
2022/05/22 11:08:23;;;;;;;;;5.00;4.00;;;;;;;;5059334;28;45418;-71
2022/05/22 11:10:48;;;;;;;;;3.50;2.50;;;;;;;;5054097;28;45656;-71
2022/05/22 11:13:20;;;;;;;;;3.00;3.00;;;;;;;;5059487;28;45288;-71
2022/05/22 11:15:45;;;;;;;;;3.75;3.75;;;;;;;;5052616;28;45346;-71
2022/05/22 11:18:21;;;;;;;;;4.50;2.75;;;;;;;;5058177;28;45393;-71
2022/05/22 11:20:50;;;;;;;;;2.50;2.50;;;;;;;;5056385;28;46030;-71
2022/05/22 11:23:15;;;;;;;;;4.75;4.75;;;;;;;;5058009;28;45450;-70
2022/05/22 11:25:53;;;;;;;;;4.50;4.50;;;;;;;;5056606;28;45423;-71
2022/05/22 11:28:37;;;;;;;;;4.75;3.50;;;;;;;;5058224;28;45756;-70
2022/05/22 11:31:21;;;;;;;;;7.75;5.25;;;;;;;;5057041;28;45359;-71
2022/05/22 11:34:01;;;;;;;;;5.00;4.00;;;;;;;;5056940;28;45507;-70
2022/05/22 11:36:32;;;;;;;;;1.00;1.00;;;;;;;;5057366;28;45299;-71
2022/05/22 11:39:09;;;;;;;;;6.00;4.75;;;;;;;;5069130;28;46101;-72
2022/05/22 11:41:36;;;;;;;;;4.00;4.00;;;;;;;;5055294;28;45075;-72
2022/05/22 11:44:16;;;;;;;;;5.00;4.00;;;;;;;;5058479;28;45321;-72
2022/05/22 11:46:53;;;;;;;;;3.50;3.50;;;;;;;;5057402;28;45493;-70
2022/05/22 11:49:31;;;;;;;;;6.00;6.00;;;;;;;;5053262;28;45355;-70
2022/05/22 11:51:56;;;;;;;;;5.00;4.00;;;;;;;;5053847;28;45373;-70
2022/05/22 11:54:47;;;;;;;;;5.00;4.50;;;;;;;;5058521;28;45359;-71
2022/05/22 11:57:28;;;;;;;;;4.00;4.00;;;;;;;;5051359;28;45344;-71
2022/05/22 12:00:00;;;;;;;;;6.33;4.67;;;;;;;;5052751;28;46348;-70
2022/05/22 12:02:35;;;;;;;;;5.25;5.25;;;;;;;;5057792;28;45473;-70
2022/05/22 12:05:19;;;;;;;;;6.50;4.00;;;;;;;;5056875;28;45288;-70
2022/05/22 12:07:44;;;;;;;;;6.00;6.00;;;;;;;;5058294;28;45443;-70
2022/05/22 12:10:13;;;;;;;;;6.00;6.00;;;;;;;;5056068;28;45589;-69
2022/05/22 12:12:43;;;;;;;;;5.00;5.00;;;;;;;;5052176;28;47947;-71
2022/05/22 12:15:26;;;;;;;;;6.00;6.00;;;;;;;;5043713;28;45547;-71
2022/05/22 12:17:53;;;;;;;;;6.00;6.00;;;;;;;;5068581;28;45726;-71
2022/05/22 12:20:19;;;;;;;;;3.00;3.00;;;;;;;;5055432;28;45425;-72
2022/05/22 12:23:07;;;;;;;;;6.00;5.00;;;;;;;;5057870;28;45339;-73
2022/05/22 12:25:33;;;;;;;;;5.67;5.00;;;;;;;;5055602;28;45355;-74
2022/05/22 12:28:00;;;;;;;;;5.75;4.00;;;;;;;;5058007;28;45671;-74
2022/05/22 12:30:27;;;;;;;;;13.67;12.67;;;;;;;;5082232;27;46832;-73
2022/05/22 12:32:56;;;;;;;;;44.67;37.00;;;;;;;;5057660;28;46332;-71
2022/05/22 12:35:21;;;;;;;;;14.00;12.67;;;;;;;;5055139;28;45525;-71
2022/05/22 12:37:53;;;;;;;;;11.33;11.33;;;;;;;;5051316;28;45526;-71
2022/05/22 12:40:24;;;;;;;;;8.67;8.67;;;;;;;;5074635;27;45992;-70
2022/05/22 12:42:51;;;;;;;;;4.25;4.25;;;;;;;;5057230;28;45645;-71
2022/05/22 12:45:16;;;;;;;;;7.25;6.00;;;;;;;;5080890;27;45477;-71
2022/05/22 12:47:43;;;;;;;;;3.50;3.50;;;;;;;;5061397;28;45446;-71
2022/05/22 12:50:09;;;;;;;;;4.50;4.00;;;;;;;;5058297;28;45371;-71
2022/05/22 12:52:35;;;;;;;;;2.00;2.00;;;;;;;;5060090;28;48155;-71
2022/05/22 12:55:00;;;;;;;;;5.50;4.25;;;;;;;;5059500;28;46355;-71
2022/05/22 12:57:25;;;;;;;;;4.00;4.00;;;;;;;;5058776;28;46531;-71
2022/05/22 12:59:51;;;;;;;;;3.75;3.75;;;;;;;;5059753;28;45441;-71
2022/05/22 13:02:32;;;;;;;;;5.00;4.25;;;;;;;;5059441;28;46032;-72
2022/05/22 13:04:58;;;;;;;;;5.00;2.75;;;;;;;;5058559;28;45283;-71
2022/05/22 13:07:29;;;;;;;;;4.75;4.25;;;;;;;;5061095;28;45353;-71
2022/05/22 13:09:54;;;;;;;;;4.25;4.25;;;;;;;;5057914;28;45429;-70
2022/05/22 13:12:31;;;;;;;;;5.00;4.75;;;;;;;;5060751;28;45355;-72
2022/05/22 13:14:56;;;;;;;;;6.25;5.00;;;;;;;;5058739;28;45426;-71
2022/05/22 13:17:30;;;;;;;;;5.50;5.50;;;;;;;;5060901;28;45284;-71
2022/05/22 13:19:56;;;;;;;;;3.00;3.00;;;;;;;;5058421;28;45633;-71
2022/05/22 13:22:41;;;;;;;;;4.50;4.50;;;;;;;;5060467;28;45435;-71
2022/05/22 13:25:25;;;;;;;;;4.00;4.00;;;;;;;;5057261;28;45441;-72
2022/05/22 13:27:50;;;;;;;;;4.75;4.50;;;;;;;;5060573;28;45559;-72
2022/05/22 13:30:42;;;;;;;;;4.00;4.00;;;;;;;;5058432;28;45494;-71
2022/05/22 13:33:08;;;;;;;;;5.00;5.00;;;;;;;;5054925;28;48084;-71
2022/05/22 13:35:36;;;;;;;;;3.75;3.50;;;;;;;;5058784;28;45313;-71
2022/05/22 13:38:01;;;;;;;;;7.75;6.00;;;;;;;;5061787;28;45409;-71
2022/05/22 13:40:45;;;;;;;;;40.33;34.00;;;;;;;;5083184;27;46526;-71
2022/05/22 13:43:29;;;;;;;;;59.67;46.00;;;;;;;;5080057;27;47516;-72
2022/05/22 13:46:20;;;;;;;;;40.00;34.67;;;;;;;;5057350;28;45452;-72
2022/05/22 13:48:46;;;;;;;;;20.33;17.33;;;;;;;;5033787;28;45567;-72
2022/05/22 13:54:09;;;;;;;;;7.50;6.25;;;;;;;;5060079;28;45413;-72
2022/05/22 13:56:40;;;;;;;;;5.75;4.50;;;;;;;;5080553;27;45251;-72
2022/05/22 13:59:11;;;;;;;;;5.75;5.00;;;;;;;;5060444;28;45340;-71
2022/05/22 14:01:40;;;;;;;;;6.25;6.25;;;;;;;;5058642;28;45370;-71
2022/05/22 14:04:06;;;;;;;;;5.25;4.75;;;;;;;;5059933;28;45341;-72
2022/05/22 14:06:35;;;;;;;;;3.50;3.25;;;;;;;;5079430;27;45362;-71
2022/05/22 14:09:03;;;;;;;;;5.25;4.25;;;;;;;;5059087;28;44730;-72
2022/05/22 14:11:30;;;;;;;;;6.67;5.00;;;;;;;;5057740;28;45376;-71
2022/05/22 14:13:55;;;;;;;;;4.00;4.00;;;;;;;;5059806;28;45342;-71
2022/05/22 14:16:21;;;;;;;;;3.33;3.33;;;;;;;;5057852;28;45625;-72
2022/05/22 14:18:56;;;;;;;;;3.75;3.75;;;;;;;;5059645;28;45442;-73
2022/05/22 14:21:21;;;;;;;;;3.33;2.00;;;;;;;;5057771;28;45503;-73
2022/05/22 14:26:30;;;;;;;;;3.00;3.00;;;;;;;;5057356;28;45487;-71
2022/05/22 14:28:56;;;;;;;;;2.25;2.25;;;;;;;;5060003;28;45350;-72
2022/05/22 14:31:22;;;;;;;;;3.75;3.00;;;;;;;;5057410;28;45444;-73
2022/05/22 14:33:47;;;;;;;;;4.33;3.67;;;;;;;;5078712;27;47098;-72
2022/05/22 14:36:14;;;;;;;;;2.00;1.00;;;;;;;;5052645;28;45515;-73
2022/05/22 14:38:41;;;;;;;;;2.00;2.00;;;;;;;;5059792;28;45435;-72
2022/05/22 14:41:09;;;;;;;;;2.75;2.75;;;;;;;;5057239;28;45543;-72
2022/05/22 14:43:34;;;;;;;;;2.50;2.50;;;;;;;;5080529;27;46133;-73
2022/05/22 14:45:59;;;;;;;;;2.25;2.00;;;;;;;;5051772;28;44808;-72
2022/05/22 14:48:26;;;;;;;;;2.67;2.67;;;;;;;;5059287;28;45703;-72
2022/05/22 14:50:53;;;;;;;;;3.50;3.00;;;;;;;;5080256;27;46263;-73
2022/05/22 14:53:22;;;;;;;;;3.00;3.00;;;;;;;;5059326;28;45466;-72
2022/05/22 14:55:48;;;;;;;;;4.00;4.00;;;;;;;;5056909;28;45283;-72
2022/05/22 14:58:19;;;;;;;;;2.00;2.00;;;;;;;;5059200;28;45421;-71
2022/05/22 15:00:52;;;;;;;;;3.00;3.00;;;;;;;;5056929;28;45409;-71
2022/05/22 15:03:29;;;;;;;;;2.50;2.50;;;;;;;;5057901;28;47373;-72
2022/05/22 15:05:56;;;;;;;;;2.75;2.75;;;;;;;;5057920;28;45319;-71
2022/05/22 15:08:23;;;;;;;;;3.00;3.00;;;;;;;;5055285;28;45209;-71